Time;durP1;ratioP1;P1;durP2;ratioP2;P2;SDS_P1;SDS_P2;PMS_P1;PMS_P2;Temp;Humidity;BMP_temperature;BMP_pressure;BME280_temperature;BME280_humidity;BME280_pressure;Samples;Min_cycle;Max_cycle;Signal;HPM_P1;HPM_P2
2023/10/14 00:01:31;;;;;;;37.30;19.55;;;16.20;99.90;;;;;;4900426;29;20108;-82
2023/10/14 00:03:59;;;;;;;33.47;19.17;;;16.10;99.90;;;;;;4916507;29;20126;-82
2023/10/14 00:06:26;;;;;;;30.52;18.88;;;16.10;99.90;;;;;;4900525;29;20562;-82
2023/10/14 00:08:59;;;;;;;32.05;17.90;;;16.20;99.90;;;;;;4916352;29;20107;-82
2023/10/14 00:11:32;;;;;;;31.48;17.83;;;16.20;99.90;;;;;;4916374;29;20505;-82
2023/10/14 00:13:59;;;;;;;27.47;17.87;;;16.20;99.90;;;;;;4917281;29;20030;-82
2023/10/14 00:19:03;;;;;;;27.02;17.13;;;16.20;99.90;;;;;;4947881;28;20031;-83
2023/10/14 00:21:34;;;;;;;28.60;18.15;;;16.20;99.90;;;;;;4932214;29;20041;-83
2023/10/14 00:24:03;;;;;;;27.27;17.40;;;16.20;99.90;;;;;;4932131;29;20071;-83
2023/10/14 00:26:31;;;;;;;27.10;17.42;;;16.20;99.90;;;;;;4932261;29;20040;-83
2023/10/14 00:32:03;;;;;;;30.58;17.88;;;16.20;99.90;;;;;;4889934;29;20040;-83
2023/10/14 00:34:30;;;;;;;29.05;18.00;;;16.30;99.90;;;;;;4913058;29;20395;-83
2023/10/14 00:36:56;;;;;;;30.25;19.27;;;16.40;99.90;;;;;;4912965;29;20055;-83
2023/10/14 00:39:31;;;;;;;37.70;20.52;;;16.40;99.90;;;;;;4913021;29;20036;-83
2023/10/14 00:41:58;;;;;;;29.77;18.60;;;16.40;99.90;;;;;;4933979;29;20047;-83
2023/10/14 00:44:26;;;;;;;24.60;17.83;;;16.50;99.90;;;;;;4916124;29;20095;-84
2023/10/14 00:46:56;;;;;;;25.92;18.27;;;16.40;99.90;;;;;;4947648;29;20060;-84
2023/10/14 00:49:31;;;;;;;29.55;18.73;;;16.40;99.90;;;;;;4931817;29;20055;-84
2023/10/14 00:52:18;;;;;;;25.42;16.98;;;16.40;99.90;;;;;;4927086;29;20064;-83
2023/10/14 00:59:47;;;;;;;29.65;18.52;;;16.10;99.90;;;;;;4898074;29;20071;-83
2023/10/14 01:02:14;;;;;;;33.47;19.75;;;16.00;99.90;;;;;;4912823;29;20120;-83
2023/10/14 01:04:48;;;;;;;35.58;20.70;;;15.90;99.90;;;;;;4912581;29;20064;-84
2023/10/14 01:07:15;;;;;;;;;;;15.70;99.90;;;;;;4913075;29;20119;-83
2023/10/14 01:12:37;;;;;;;35.75;19.17;;;15.50;99.90;;;;;;4934939;29;20036;-83
2023/10/14 01:15:30;;;;;;;35.33;20.02;;;15.40;99.90;;;;;;4931707;29;20055;-84
2023/10/14 01:17:54;;;;;;;32.88;20.02;;;15.40;99.90;;;;;;4916982;29;20532;-83
2023/10/14 01:22:51;;;;;;;33.60;18.85;;;15.40;99.90;;;;;;4947484;29;20393;-83
2023/10/14 01:25:25;;;;;;;34.97;18.40;;;15.40;99.90;;;;;;4947707;28;20082;-83
2023/10/14 01:27:52;;;;;;;30.67;18.33;;;15.40;99.90;;;;;;4935440;29;20449;-82
2023/10/14 01:30:25;;;;;;;29.90;18.42;;;15.40;99.90;;;;;;4935273;29;20447;-83
2023/10/14 01:32:56;;;;;;;29.38;19.02;;;15.40;99.90;;;;;;4924010;29;20033;-84
2023/10/14 01:37:57;;;;;;;31.40;18.98;;;15.30;99.90;;;;;;4948674;29;20123;-83
2023/10/14 01:42:58;;;;;;;29.17;18.40;;;15.20;99.90;;;;;;4907615;29;20039;-83
2023/10/14 01:45:39;;;;;;;27.98;18.45;;;15.20;99.90;;;;;;4900337;29;20145;-83
2023/10/14 01:48:12;;;;;;;32.10;18.52;;;15.10;99.90;;;;;;4931920;29;20047;-83
2023/10/14 01:50:57;;;;;;;32.97;18.42;;;15.10;99.90;;;;;;4916030;29;20040;-83
2023/10/14 01:53:34;;;;;;;32.72;18.80;;;15.10;99.90;;;;;;4931466;29;20042;-83
2023/10/14 01:56:03;;;;;;;33.50;19.95;;;15.20;99.90;;;;;;4904949;29;20478;-83
2023/10/14 01:58:36;;;;;;;45.60;23.30;;;15.20;99.90;;;;;;4916085;29;20024;-83
2023/10/14 02:01:12;;;;;;;58.35;27.08;;;15.20;99.90;;;;;;4900103;29;20025;-83
2023/10/14 02:03:46;;;;;;;58.00;28.83;;;15.30;99.90;;;;;;4932991;29;20032;-82
2023/10/14 02:06:18;;;;;;;61.40;27.85;;;15.20;99.90;;;;;;4934600;29;20044;-83
2023/10/14 02:08:48;;;;;;;58.60;27.67;;;15.20;99.90;;;;;;4919925;29;20078;-82
2023/10/14 02:11:20;;;;;;;49.67;25.27;;;15.20;99.90;;;;;;4934555;29;20079;-82
2023/10/14 02:13:52;;;;;;;49.50;25.33;;;15.00;99.90;;;;;;4934576;29;20071;-82
2023/10/14 02:16:29;;;;;;;51.72;26.67;;;15.00;99.90;;;;;;4934543;29;20092;-83
2023/10/14 02:19:18;;;;;;;68.43;27.55;;;14.90;99.90;;;;;;4934585;29;20024;-83
2023/10/14 02:21:46;;;;;;;54.88;28.35;;;14.80;99.90;;;;;;4948394;28;20036;-82
2023/10/14 02:24:13;;;;;;;58.65;27.88;;;14.70;99.90;;;;;;4915304;29;20025;-83
2023/10/14 02:26:39;;;;;;;65.07;30.17;;;14.50;99.90;;;;;;4915315;29;20032;-83
2023/10/14 02:29:08;;;;;;;73.43;29.70;;;14.40;99.90;;;;;;4915159;29;20047;-84
2023/10/14 02:31:37;;;;;;;67.55;29.05;;;14.40;99.90;;;;;;4915526;29;20028;-83
2023/10/14 02:34:06;;;;;;;57.13;28.70;;;14.40;99.90;;;;;;4934366;29;20398;-83
2023/10/14 02:36:41;;;;;;;71.47;29.65;;;14.40;99.90;;;;;;4949606;28;20028;-83
2023/10/14 02:39:14;;;;;;;80.65;32.55;;;14.50;99.90;;;;;;4918326;29;20036;-82
2023/10/14 02:41:58;;;;;;;80.57;34.47;;;14.50;99.90;;;;;;4932988;29;20043;-82
2023/10/14 02:44:33;;;;;;;80.03;33.88;;;14.60;99.90;;;;;;4900455;29;20028;-82
2023/10/14 02:47:08;;;;;;;;;;;14.60;99.90;;;;;;4931431;29;20036;-83
2023/10/14 02:49:39;;;;;;;90.10;31.48;;;14.60;99.90;;;;;;4900484;29;19923;-83
2023/10/14 02:52:12;;;;;;;81.45;31.50;;;14.70;99.90;;;;;;4903342;29;20028;-83
2023/10/14 02:57:45;;;;;;;158.57;29.75;;;14.90;99.90;;;;;;4896716;29;20047;-82
2023/10/14 03:00:29;;;;;;;80.93;25.33;;;15.00;99.90;;;;;;4933599;29;20032;-82
2023/10/14 03:02:55;;;;;;;88.75;20.08;;;15.10;99.90;;;;;;4933562;29;20059;-83
2023/10/14 03:08:24;;;;;;;83.82;20.15;;;15.00;99.90;;;;;;4897784;29;20036;-82
2023/10/14 03:10:55;;;;;;;131.77;21.67;;;14.90;99.90;;;;;;4882162;29;20032;-82
2023/10/14 03:13:22;;;;;;;104.75;21.05;;;14.90;99.90;;;;;;4866576;29;20033;-82
2023/10/14 03:15:52;;;;;;;86.22;21.52;;;14.90;99.90;;;;;;4897791;29;20077;-82
2023/10/14 03:18:20;;;;;;;55.33;20.58;;;14.80;99.90;;;;;;4897669;29;20546;-82
2023/10/14 03:23:19;;;;;;;49.13;18.98;;;14.70;99.90;;;;;;4884443;29;20491;-86
2023/10/14 03:25:49;;;;;;;43.97;18.17;;;14.70;99.90;;;;;;4880306;29;20124;-86
2023/10/14 03:28:19;;;;;;;39.15;17.10;;;14.80;99.90;;;;;;4896832;29;20097;-86
2023/10/14 03:30:58;;;;;;;43.55;17.40;;;14.80;99.90;;;;;;4886070;29;20066;-85
2023/10/14 03:33:32;;;;;;;36.65;16.88;;;14.80;99.90;;;;;;4886164;29;20496;-86
2023/10/14 03:36:03;;;;;;;32.83;15.88;;;14.80;99.90;;;;;;4885935;29;20426;-86
2023/10/14 03:46:43;;;;;;;27.35;13.52;;;14.90;99.90;;;;;;4936833;29;19911;-83
2023/10/14 03:49:44;;;;;;;28.15;13.93;;;14.90;99.90;;;;;;4935342;29;20410;-82
2023/10/14 03:52:03;;;;;;;28.60;13.73;;;14.90;99.90;;;;;;4931922;29;20036;-82
2023/10/14 03:54:35;;;;;;;31.92;14.45;;;15.00;99.90;;;;;;4933193;29;20028;-83
2023/10/14 03:57:05;;;;;;;38.55;16.02;;;14.90;99.90;;;;;;4932827;29;20342;-84
2023/10/14 03:59:33;;;;;;;76.75;16.75;;;14.90;99.90;;;;;;4933018;29;20482;-83
2023/10/14 04:02:08;;;;;;;119.40;17.33;;;14.90;99.90;;;;;;4930058;29;20549;-84
2023/10/14 04:04:34;;;;;;;148.85;20.17;;;14.90;99.90;;;;;;4917060;29;20028;-84
2023/10/14 04:09:42;;;;;;;130.43;18.67;;;14.80;99.90;;;;;;4916961;29;20121;-83
2023/10/14 04:12:12;;;;;;;84.00;20.35;;;14.80;99.90;;;;;;4916868;29;20671;-84
2023/10/14 04:14:40;;;;;;;50.30;18.67;;;14.70;99.90;;;;;;4901455;29;20092;-84
2023/10/14 04:19:45;;;;;;;39.78;16.38;;;14.70;99.90;;;;;;4916860;29;20035;-83
2023/10/14 04:25:05;;;;;;;25.60;13.75;;;14.70;99.90;;;;;;4917900;29;20040;-84
2023/10/14 04:27:35;;;;;;;24.67;12.90;;;14.70;99.90;;;;;;4916523;29;20040;-83
2023/10/14 04:30:13;;;;;;;22.33;12.95;;;14.60;99.90;;;;;;4917983;29;20470;-88
2023/10/14 04:32:42;;;;;;;26.52;13.55;;;14.60;99.90;;;;;;4931900;29;20036;-83
2023/10/14 04:35:12;;;;;;;20.70;12.48;;;14.60;99.90;;;;;;4932232;29;20055;-83
2023/10/14 04:37:54;;;;;;;21.70;12.55;;;14.60;99.90;;;;;;4932053;29;20040;-83
2023/10/14 04:48:35;;;;;;;18.52;11.82;;;14.70;99.90;;;;;;4928547;29;20040;-83
2023/10/14 04:51:08;;;;;;;20.42;12.27;;;14.60;99.90;;;;;;4898075;29;20032;-82
2023/10/14 04:53:35;;;;;;;21.58;12.90;;;14.60;99.90;;;;;;4928609;29;20037;-82
2023/10/14 04:56:08;;;;;;;22.10;12.07;;;14.60;99.90;;;;;;4928583;29;20040;-83
2023/10/14 04:58:37;;;;;;;23.35;12.38;;;14.60;99.90;;;;;;4928634;29;20039;-83
2023/10/14 05:01:09;;;;;;;15.48;11.07;;;14.60;99.90;;;;;;4896722;29;20028;-82
2023/10/14 05:03:36;;;;;;;22.27;12.55;;;14.60;99.90;;;;;;4926534;29;20060;-83
2023/10/14 05:06:14;;;;;;;14.23;10.80;;;14.60;99.90;;;;;;4915563;29;20087;-83
2023/10/14 05:08:45;;;;;;;19.92;12.50;;;14.60;99.90;;;;;;4931605;29;20044;-83
2023/10/14 05:11:15;;;;;;;14.50;10.82;;;14.60;99.90;;;;;;4931519;29;20071;-82
2023/10/14 05:13:53;;;;;;;18.17;11.18;;;14.50;99.90;;;;;;4902450;29;20517;-82
2023/10/14 05:16:26;;;;;;;17.67;11.32;;;14.50;99.90;;;;;;4912532;29;20037;-83
2023/10/14 05:19:07;;;;;;;20.17;11.85;;;14.50;99.90;;;;;;4928472;29;20029;-83
2023/10/14 05:21:43;;;;;;;18.00;12.20;;;14.50;99.90;;;;;;4912633;29;20035;-82
2023/10/14 05:24:11;;;;;;;13.23;11.57;;;14.60;99.90;;;;;;4930379;29;20054;-82
2023/10/14 05:26:48;;;;;;;16.15;11.93;;;14.60;99.90;;;;;;4931300;29;20032;-82
2023/10/14 05:29:18;;;;;;;16.73;12.40;;;14.60;99.90;;;;;;4931408;29;20052;-82
2023/10/14 05:31:47;;;;;;;16.08;12.35;;;14.70;99.90;;;;;;4931288;29;20505;-82
2023/10/14 05:34:15;;;;;;;17.27;13.07;;;14.80;99.90;;;;;;4925337;29;20024;-82
2023/10/14 05:36:42;;;;;;;14.18;12.50;;;14.90;99.90;;;;;;4899767;29;20024;-83
2023/10/14 05:39:11;;;;;;;18.88;12.65;;;14.90;99.90;;;;;;4915664;29;20086;-83
2023/10/14 05:41:38;;;;;;;18.48;13.23;;;15.00;99.90;;;;;;4899736;29;20103;-83
2023/10/14 05:44:06;;;;;;;16.02;12.85;;;15.10;99.90;;;;;;4931696;29;20043;-83
2023/10/14 05:46:33;;;;;;;17.42;12.57;;;15.30;99.90;;;;;;4933039;29;20043;-83
2023/10/14 05:49:01;;;;;;;14.55;12.93;;;15.70;99.90;;;;;;4933349;29;20131;-82
2023/10/14 05:51:28;;;;;;;17.65;13.60;;;16.20;99.90;;;;;;4933402;29;20032;-83
2023/10/14 05:53:56;;;;;;;16.30;14.60;;;16.80;99.90;;;;;;4920695;29;20040;-83
2023/10/14 05:56:27;;;;;;;21.23;16.20;;;17.30;99.90;;;;;;4917195;29;20131;-83
2023/10/14 05:58:57;;;;;;;22.10;17.95;;;18.00;99.90;;;;;;4933278;29;20028;-82
2023/10/14 06:01:24;;;;;;;22.95;20.73;;;18.50;99.90;;;;;;4937556;29;20501;-83
2023/10/14 06:03:50;;;;;;;25.20;22.42;;;18.80;99.90;;;;;;4925835;29;20028;-83
2023/10/14 06:06:21;;;;;;;26.52;24.35;;;19.40;99.90;;;;;;4898266;29;20052;-84
2023/10/14 06:08:49;;;;;;;27.77;25.15;;;19.80;99.90;;;;;;4913561;29;20046;-84
2023/10/14 06:11:19;;;;;;;26.15;23.67;;;20.00;99.90;;;;;;4898376;29;20044;-85
2023/10/14 06:13:45;;;;;;;28.35;25.33;;;20.40;99.90;;;;;;4913033;29;20036;-84
2023/10/14 06:16:13;;;;;;;28.60;26.10;;;20.60;99.90;;;;;;4917807;29;20095;-84
2023/10/14 06:18:41;;;;;;;30.35;27.42;;;21.00;99.90;;;;;;4902123;29;20067;-87
2023/10/14 06:21:10;;;;;;;28.80;26.30;;;21.40;99.90;;;;;;4899151;29;20459;-82
2023/10/14 06:23:47;;;;;;;30.40;27.55;;;21.40;99.90;;;;;;4900763;29;20508;-84
2023/10/14 06:26:19;;;;;;;31.30;28.45;;;21.40;99.90;;;;;;4899633;29;20036;-84
2023/10/14 06:28:56;;;;;;;32.45;29.17;;;21.70;99.90;;;;;;4899316;29;20036;-83
2023/10/14 06:31:24;;;;;;;32.95;29.65;;;21.90;99.90;;;;;;4899496;29;20033;-81
2023/10/14 06:33:54;;;;;;;32.08;29.13;;;22.50;99.90;;;;;;4900664;29;20032;-89
2023/10/14 06:36:24;;;;;;;32.42;29.17;;;22.90;99.90;;;;;;4900037;29;20060;-84
2023/10/14 06:38:51;;;;;;;31.55;28.13;;;23.10;99.90;;;;;;4899643;29;20039;-81
2023/10/14 06:41:18;;;;;;;31.85;28.80;;;23.10;99.90;;;;;;4900483;29;20086;-83
2023/10/14 06:43:55;;;;;;;32.38;29.13;;;23.00;99.90;;;;;;4912622;29;20566;-83
2023/10/14 06:46:23;;;;;;;33.70;28.90;;;23.10;99.90;;;;;;4918141;29;20036;-84
2023/10/14 06:48:55;;;;;;;30.77;28.08;;;23.50;99.90;;;;;;4918313;29;20493;-83
2023/10/14 06:51:22;;;;;;;31.92;28.73;;;23.60;99.90;;;;;;4919248;29;20032;-84
2023/10/14 06:53:51;;;;;;;31.00;27.80;;;23.70;99.90;;;;;;4919541;29;20028;-84
2023/10/14 06:56:27;;;;;;;31.98;28.75;;;23.80;99.90;;;;;;4935592;29;20565;-83
2023/10/14 06:58:54;;;;;;;31.48;28.38;;;24.10;99.90;;;;;;4920037;29;20084;-83
2023/10/14 07:01:23;;;;;;;31.92;28.48;;;24.30;99.90;;;;;;4935908;29;20028;-83
2023/10/14 07:03:52;;;;;;;31.35;27.90;;;24.60;99.90;;;;;;4919571;29;20426;-85
2023/10/14 07:06:18;;;;;;;35.60;28.92;;;24.80;99.90;;;;;;4898493;29;20053;-83
2023/10/14 07:08:48;;;;;;;31.83;28.77;;;25.20;99.90;;;;;;4903803;29;20048;-84
2023/10/14 07:11:17;;;;;;;29.90;27.20;;;25.30;99.90;;;;;;4914005;29;20032;-85
2023/10/14 07:13:46;;;;;;;30.73;27.27;;;25.60;99.90;;;;;;4927491;29;20126;-85
2023/10/14 07:16:13;;;;;;;30.83;26.00;;;25.40;99.90;;;;;;4949251;29;20077;-84
2023/10/14 07:18:41;;;;;;;28.65;25.88;;;25.20;99.90;;;;;;4933543;29;20123;-85
2023/10/14 07:21:13;;;;;;;29.90;26.88;;;25.00;99.90;;;;;;4949703;29;20028;-85
2023/10/14 07:23:40;;;;;;;31.30;26.15;;;24.80;99.90;;;;;;4920005;29;20033;-85
2023/10/14 07:26:13;;;;;;;28.17;25.20;;;24.80;99.90;;;;;;4929482;29;20514;-85
2023/10/14 07:28:46;;;;;;;27.77;25.05;;;25.00;99.90;;;;;;4918466;29;20055;-84
2023/10/14 07:31:13;;;;;;;27.10;24.87;;;25.40;99.90;;;;;;4901761;29;20096;-86
2023/10/14 07:33:40;;;;;;;27.67;25.15;;;25.30;99.90;;;;;;4906312;29;20317;-86
2023/10/14 07:36:07;;;;;;;28.15;25.52;;;25.60;99.90;;;;;;4898412;29;20088;-83
2023/10/14 07:38:36;;;;;;;29.20;25.67;;;25.40;99.90;;;;;;4899476;29;20039;-82
2023/10/14 07:41:05;;;;;;;29.00;26.23;;;25.30;99.90;;;;;;4899385;29;20036;-82
2023/10/14 07:43:40;;;;;;;45.75;26.90;;;24.90;99.90;;;;;;4909990;29;20036;-83
2023/10/14 07:46:09;;;;;;;29.77;26.38;;;25.30;99.90;;;;;;4915812;29;20128;-84
2023/10/14 07:48:37;;;;;;;28.25;25.55;;;25.60;99.90;;;;;;4916816;29;20048;-84
2023/10/14 07:51:06;;;;;;;28.50;25.88;;;25.20;99.90;;;;;;4900272;29;20581;-86
2023/10/14 07:53:32;;;;;;;29.10;26.15;;;25.40;99.90;;;;;;4895104;29;20042;-83
2023/10/14 07:55:58;;;;;;;28.27;25.58;;;25.30;99.90;;;;;;4919068;29;20417;-85
2023/10/14 07:58:27;;;;;;;27.40;25.00;;;25.10;99.90;;;;;;4903732;29;20450;-85
2023/10/14 08:00:55;;;;;;;27.45;24.95;;;25.20;99.90;;;;;;4919592;29;20039;-85
2023/10/14 08:03:29;;;;;;;28.92;26.38;;;24.90;99.90;;;;;;4915669;29;20418;-85
2023/10/14 08:05:59;;;;;;;28.73;26.33;;;25.00;99.90;;;;;;4915513;29;20052;-84
2023/10/14 08:08:34;;;;;;;28.67;25.90;;;24.90;99.90;;;;;;4915943;29;20042;-83
2023/10/14 08:11:01;;;;;;;32.97;26.75;;;24.90;99.90;;;;;;4915862;29;20051;-84
2023/10/14 08:13:31;;;;;;;29.08;25.98;;;25.00;99.90;;;;;;4902900;29;20082;-84
2023/10/14 08:16:07;;;;;;;28.65;26.23;;;25.10;99.90;;;;;;4915585;29;20029;-85
2023/10/14 08:18:44;;;;;;;28.70;26.20;;;25.00;99.90;;;;;;4916451;29;20081;-84
2023/10/14 08:21:14;;;;;;;29.10;26.60;;;25.20;99.90;;;;;;4915701;29;20032;-85
2023/10/14 08:23:41;;;;;;;29.50;26.90;;;25.30;99.90;;;;;;4900434;29;20402;-82
2023/10/14 08:26:13;;;;;;;29.23;26.58;;;25.40;99.90;;;;;;4948666;29;20490;-85
2023/10/14 08:28:40;;;;;;;28.05;25.95;;;25.50;99.90;;;;;;4949317;29;20046;-84
2023/10/14 08:31:08;;;;;;;28.60;26.15;;;25.60;99.90;;;;;;4932188;29;20042;-85
2023/10/14 08:33:36;;;;;;;28.67;26.17;;;25.60;99.90;;;;;;4922419;29;20390;-85
2023/10/14 08:36:03;;;;;;;29.73;26.67;;;25.60;99.90;;;;;;4912892;29;20028;-83
2023/10/14 08:38:29;;;;;;;30.10;27.35;;;25.50;99.90;;;;;;4913793;29;20032;-83
2023/10/14 08:40:59;;;;;;;29.77;27.10;;;25.50;99.90;;;;;;4897195;29;20039;-83
2023/10/14 08:43:28;;;;;;;29.25;26.80;;;25.60;99.90;;;;;;4922013;29;20100;-84
2023/10/14 08:45:55;;;;;;;29.25;27.05;;;25.60;99.90;;;;;;4931906;29;20539;-83
2023/10/14 08:48:26;;;;;;;29.85;27.27;;;25.70;99.90;;;;;;4916063;29;20051;-83
2023/10/14 08:50:59;;;;;;;29.00;26.60;;;25.50;99.90;;;;;;4931788;29;20419;-84
2023/10/14 08:53:27;;;;;;;28.92;26.42;;;25.60;99.90;;;;;;4922604;29;20154;-84
2023/10/14 08:55:55;;;;;;;28.58;26.25;;;25.50;99.90;;;;;;4912864;29;20375;-84
2023/10/14 08:58:22;;;;;;;28.92;26.38;;;25.70;99.90;;;;;;4912932;29;20092;-85
2023/10/14 09:00:52;;;;;;;29.40;27.05;;;25.80;99.90;;;;;;4913120;29;20120;-81
2023/10/14 09:03:19;;;;;;;30.92;28.08;;;25.90;99.90;;;;;;4947240;29;20501;-84
2023/10/14 09:05:46;;;;;;;29.25;26.35;;;25.60;99.90;;;;;;4916246;29;20078;-84
2023/10/14 09:08:16;;;;;;;29.40;26.67;;;25.60;99.90;;;;;;4916132;29;20047;-85
2023/10/14 09:10:44;;;;;;;29.02;26.50;;;25.70;99.90;;;;;;4916230;29;20036;-84
2023/10/14 09:13:13;;;;;;;32.88;26.27;;;25.70;99.90;;;;;;4916181;29;20016;-84
2023/10/14 09:15:41;;;;;;;29.20;26.67;;;26.00;99.90;;;;;;4916553;29;20032;-87
2023/10/14 09:18:25;;;;;;;29.33;26.60;;;26.20;99.90;;;;;;4901289;29;20036;-85
2023/10/14 09:20:54;;;;;;;28.90;26.20;;;26.00;99.90;;;;;;4908760;29;20032;-86
2023/10/14 09:23:29;;;;;;;28.77;26.35;;;26.30;99.90;;;;;;4893394;29;20020;-89
2023/10/14 09:25:58;;;;;;;28.95;26.25;;;26.40;99.90;;;;;;4899271;29;20043;-83
2023/10/14 09:28:33;;;;;;;28.48;26.25;;;26.30;99.90;;;;;;4902730;29;20064;-84
2023/10/14 09:31:07;;;;;;;28.52;25.80;;;26.20;99.90;;;;;;4899687;29;20032;-87
2023/10/14 09:33:35;;;;;;;28.92;26.67;;;26.20;99.90;;;;;;4897640;29;20039;-86
2023/10/14 09:36:14;;;;;;;29.02;26.67;;;26.30;99.90;;;;;;4897813;29;20033;-84
2023/10/14 09:38:43;;;;;;;29.50;27.00;;;26.40;99.90;;;;;;4897607;29;20124;-84
2023/10/14 09:41:10;;;;;;;28.90;26.50;;;26.40;99.90;;;;;;4922234;29;20382;-83
2023/10/14 09:43:42;;;;;;;29.23;26.65;;;26.30;99.90;;;;;;4926553;29;20028;-84
2023/10/14 09:46:16;;;;;;;29.27;26.48;;;26.20;99.90;;;;;;4917058;29;20028;-84
2023/10/14 09:48:44;;;;;;;28.70;26.38;;;26.40;99.90;;;;;;4935397;29;20043;-82
2023/10/14 09:51:12;;;;;;;29.45;27.00;;;26.50;99.90;;;;;;4919179;29;20472;-85
2023/10/14 09:53:39;;;;;;;29.25;26.63;;;26.60;99.90;;;;;;4919404;29;20092;-84
2023/10/14 09:56:10;;;;;;;29.65;26.95;;;26.50;99.90;;;;;;4919090;29;20027;-84
2023/10/14 09:58:41;;;;;;;30.23;27.58;;;26.50;99.90;;;;;;4928021;29;20035;-82
2023/10/14 10:01:14;;;;;;;29.42;26.85;;;26.70;99.90;;;;;;4939028;29;20035;-81
2023/10/14 10:03:51;;;;;;;30.70;27.92;;;26.40;99.90;;;;;;4938890;29;20035;-82
2023/10/14 10:07:09;;;;;;;29.95;27.23;;;26.40;99.90;;;;;;4938714;29;20184;-82
2023/10/14 10:10:10;;;;;;;30.63;27.58;;;26.50;99.90;;;;;;4930645;29;20592;-83
2023/10/14 10:12:40;;;;;;;29.83;27.55;;;26.40;99.90;;;;;;4917225;29;20028;-82
2023/10/14 10:15:19;;;;;;;29.83;27.27;;;26.60;99.90;;;;;;4901636;29;20043;-82
2023/10/14 10:18:05;;;;;;;34.15;30.83;;;26.90;99.90;;;;;;4898962;29;20028;-83
2023/10/14 10:20:36;;;;;;;30.63;28.08;;;27.10;99.90;;;;;;4917281;29;20135;-82
2023/10/14 10:23:10;;;;;;;31.80;29.08;;;27.20;99.90;;;;;;4917214;29;20178;-82
2023/10/14 10:25:39;;;;;;;30.52;28.30;;;27.10;99.90;;;;;;4886596;29;20033;-86
2023/10/14 10:28:32;;;;;;;31.63;29.23;;;27.10;99.90;;;;;;4886531;29;20174;-87
2023/10/14 10:31:07;;;;;;;32.50;30.00;;;27.00;99.90;;;;;;4918061;29;20036;-85
2023/10/14 10:33:54;;;;;;;32.33;29.45;;;27.00;99.90;;;;;;4901554;29;20043;-85
2023/10/14 10:36:25;;;;;;;32.47;30.02;;;27.00;99.90;;;;;;4920794;29;20449;-85
2023/10/14 10:39:16;;;;;;;32.80;30.10;;;27.10;99.90;;;;;;4936153;29;20091;-80
2023/10/14 10:41:53;;;;;;;33.00;30.27;;;27.30;99.90;;;;;;4921326;29;20452;-86
2023/10/14 10:44:20;;;;;;;34.03;30.80;;;27.10;99.90;;;;;;4937454;29;20028;-85
2023/10/14 10:46:50;;;;;;;32.60;29.92;;;27.00;99.90;;;;;;4921250;29;20036;-85
2023/10/14 10:49:53;;;;;;;32.95;30.27;;;26.90;99.90;;;;;;4937050;29;20048;-83
2023/10/14 10:52:21;;;;;;;32.97;30.05;;;27.00;99.90;;;;;;4936675;29;20431;-86
2023/10/14 10:54:47;;;;;;;33.63;30.63;;;27.20;99.90;;;;;;4919156;29;20028;-87
2023/10/14 10:57:14;;;;;;;35.15;31.85;;;27.10;99.90;;;;;;4933540;29;20490;-84
2023/10/14 10:59:50;;;;;;;35.05;32.20;;;27.30;99.90;;;;;;4933761;29;20034;-85
2023/10/14 11:02:19;;;;;;;34.58;31.73;;;27.50;99.90;;;;;;4933811;29;20031;-83
2023/10/14 11:04:48;;;;;;;35.90;32.72;;;27.60;99.90;;;;;;4906855;29;20032;-85
2023/10/14 11:07:19;;;;;;;35.10;32.08;;;27.80;99.90;;;;;;4914131;29;20498;-85
2023/10/14 11:09:49;;;;;;;34.45;31.83;;;27.60;99.90;;;;;;4900009;29;20044;-84
2023/10/14 11:12:21;;;;;;;33.05;30.45;;;27.60;99.90;;;;;;4898703;29;20486;-82
2023/10/14 11:14:52;;;;;;;34.28;30.90;;;27.20;99.90;;;;;;4913206;29;20040;-82
2023/10/14 11:17:26;;;;;;;32.47;29.80;;;27.10;99.90;;;;;;4898656;29;20024;-81
2023/10/14 11:19:53;;;;;;;34.00;30.95;;;27.00;99.90;;;;;;4923045;29;20032;-83
2023/10/14 11:22:20;;;;;;;34.25;30.83;;;27.30;99.90;;;;;;4936562;29;20478;-84
2023/10/14 11:24:47;;;;;;;34.05;30.90;;;27.10;99.90;;;;;;4918759;29;20051;-82
2023/10/14 11:27:15;;;;;;;33.80;30.60;;;27.20;99.90;;;;;;4918722;29;20072;-83
2023/10/14 11:29:45;;;;;;;35.08;32.03;;;27.40;99.90;;;;;;4918323;29;20406;-84
2023/10/14 11:32:15;;;;;;;33.28;30.20;;;27.20;99.90;;;;;;4922762;29;20414;-83
2023/10/14 11:34:51;;;;;;;34.40;31.20;;;27.30;99.90;;;;;;4917135;29;20046;-83
2023/10/14 11:37:18;;;;;;;34.22;31.52;;;27.30;99.90;;;;;;4933868;29;20083;-83
2023/10/14 11:39:47;;;;;;;33.60;30.85;;;27.40;99.90;;;;;;4937157;29;20517;-82
2023/10/14 11:42:14;;;;;;;33.55;30.90;;;27.30;99.90;;;;;;4937084;29;20044;-83
2023/10/14 11:44:40;;;;;;;33.78;31.00;;;27.30;99.90;;;;;;4919380;29;20310;-84
2023/10/14 11:47:16;;;;;;;35.13;32.15;;;27.50;99.90;;;;;;4933093;29;20032;-82
2023/10/14 11:49:53;;;;;;;34.97;31.92;;;27.40;99.90;;;;;;4932975;29;20135;-86
2023/10/14 11:52:22;;;;;;;34.03;31.42;;;27.60;99.90;;;;;;4901897;29;20035;-85
2023/10/14 11:54:48;;;;;;;34.65;31.63;;;27.50;99.90;;;;;;4912353;29;20469;-87
2023/10/14 11:57:15;;;;;;;34.88;31.92;;;27.50;99.90;;;;;;4913857;29;20509;-84
2023/10/14 11:59:41;;;;;;;35.05;32.05;;;27.50;99.90;;;;;;4898249;29;20056;-85
2023/10/14 12:02:07;;;;;;;35.22;32.42;;;27.50;99.90;;;;;;4899249;29;20080;-86
2023/10/14 12:04:40;;;;;;;34.60;31.80;;;27.60;99.90;;;;;;4925213;29;20056;-84
2023/10/14 12:07:07;;;;;;;35.73;32.50;;;27.50;99.90;;;;;;4926678;29;20490;-83
2023/10/14 12:09:33;;;;;;;36.08;33.00;;;27.50;99.90;;;;;;4919161;29;20086;-85
2023/10/14 12:12:01;;;;;;;34.83;32.00;;;27.60;99.90;;;;;;4936059;29;20035;-85
2023/10/14 12:14:28;;;;;;;34.60;31.85;;;27.50;99.90;;;;;;4902579;29;20119;-86
2023/10/14 12:17:00;;;;;;;34.80;32.28;;;27.70;99.90;;;;;;4919134;29;20028;-82
2023/10/14 12:19:27;;;;;;;35.85;32.70;;;27.60;99.90;;;;;;4935643;29;20035;-85
2023/10/14 12:21:54;;;;;;;35.05;32.10;;;27.70;99.90;;;;;;4919910;29;20024;-82
2023/10/14 12:24:21;;;;;;;35.88;33.08;;;27.80;99.90;;;;;;4919730;29;20115;-83
2023/10/14 12:26:52;;;;;;;35.33;32.53;;;27.70;99.90;;;;;;4919625;29;20397;-84
2023/10/14 12:29:20;;;;;;;35.55;32.15;;;27.60;99.90;;;;;;4935372;29;20067;-83
2023/10/14 12:31:47;;;;;;;35.53;32.65;;;27.80;99.90;;;;;;4919355;29;20115;-83
2023/10/14 12:34:16;;;;;;;35.50;32.33;;;27.70;99.90;;;;;;4923778;29;20455;-82
2023/10/14 12:36:43;;;;;;;34.20;31.60;;;27.70;99.90;;;;;;4897053;29;20033;-83
2023/10/14 12:39:33;;;;;;;36.28;33.33;;;27.80;99.90;;;;;;4898472;29;20108;-82
2023/10/14 12:42:03;;;;;;;34.80;32.17;;;27.90;99.90;;;;;;4913206;29;20059;-84
2023/10/14 12:44:32;;;;;;;34.80;32.30;;;27.80;99.90;;;;;;4905592;29;20062;-85
2023/10/14 12:47:05;;;;;;;35.17;32.17;;;27.80;99.90;;;;;;4916351;29;20118;-84
2023/10/14 12:49:36;;;;;;;35.65;32.42;;;27.70;99.90;;;;;;4917201;29;20450;-88
2023/10/14 12:52:15;;;;;;;34.13;31.42;;;27.70;99.90;;;;;;4917233;29;20394;-88
2023/10/14 12:54:49;;;;;;;34.17;31.38;;;27.60;99.90;;;;;;4917060;29;20087;-88
2023/10/14 12:57:16;;;;;;;34.60;31.63;;;27.60;99.90;;;;;;4916980;29;20028;-88
2023/10/14 12:59:46;;;;;;;34.20;31.35;;;27.70;99.90;;;;;;4902022;29;20028;-88
2023/10/14 13:02:17;;;;;;;34.17;31.33;;;27.50;99.90;;;;;;4916907;29;20060;-88
2023/10/14 13:04:45;;;;;;;35.50;32.50;;;27.50;99.90;;;;;;4917066;29;20036;-88
2023/10/14 13:07:12;;;;;;;34.92;31.77;;;27.70;99.90;;;;;;4901056;29;20048;-87
2023/10/14 13:09:39;;;;;;;34.47;31.90;;;27.70;99.90;;;;;;4917046;29;20044;-87
2023/10/14 13:12:15;;;;;;;35.42;32.35;;;27.60;99.90;;;;;;4900704;29;20052;-86
2023/10/14 13:14:43;;;;;;;34.45;31.35;;;27.60;99.90;;;;;;4916459;29;20032;-86
2023/10/14 13:17:09;;;;;;;34.80;31.50;;;27.50;99.90;;;;;;4900848;29;20088;-86
2023/10/14 13:19:36;;;;;;;34.53;31.60;;;27.40;99.90;;;;;;4915731;29;20385;-85
2023/10/14 13:22:13;;;;;;;34.35;31.50;;;27.60;99.90;;;;;;4922534;29;20107;-86
2023/10/14 13:24:40;;;;;;;35.10;32.15;;;27.70;99.90;;;;;;4924027;29;20079;-84
2023/10/14 13:27:07;;;;;;;35.55;32.50;;;27.60;99.90;;;;;;4902915;29;20111;-86
2023/10/14 13:29:36;;;;;;;33.42;30.88;;;27.70;99.90;;;;;;4917332;29;20067;-86
2023/10/14 13:32:05;;;;;;;34.33;31.60;;;27.60;99.90;;;;;;4917422;29;20039;-87
2023/10/14 13:34:32;;;;;;;33.92;31.10;;;27.50;99.90;;;;;;4916856;29;20087;-87
2023/10/14 13:37:04;;;;;;;33.50;31.05;;;27.50;99.90;;;;;;4917082;29;20029;-87
2023/10/14 13:39:37;;;;;;;32.10;29.20;;;27.40;99.90;;;;;;4917430;29;20088;-88
2023/10/14 13:42:07;;;;;;;30.05;27.75;;;27.20;99.90;;;;;;4917403;29;20025;-88